createdAt,value
2023-03-05T00:00:18.262Z,6.49
2023-03-05T00:02:44.655Z,6.50
2023-03-05T00:05:11.157Z,6.50
2023-03-05T00:07:37.519Z,6.50
2023-03-05T00:10:04.809Z,6.50
2023-03-05T00:12:31.468Z,6.49
2023-03-05T00:14:57.900Z,6.50
2023-03-05T00:17:24.314Z,6.51
2023-03-05T00:19:50.722Z,6.50
2023-03-05T00:22:17.166Z,6.52
2023-03-05T00:24:43.618Z,6.52
2023-03-05T00:27:10.050Z,6.52
2023-03-05T00:29:36.470Z,6.53
2023-03-05T00:32:03.007Z,6.54
2023-03-05T00:34:29.665Z,6.55
2023-03-05T00:36:56.199Z,6.55
2023-03-05T00:39:22.746Z,6.55
2023-03-05T00:41:49.198Z,6.56
2023-03-05T00:44:15.895Z,6.55
2023-03-05T00:46:42.388Z,6.55
2023-03-05T00:49:08.873Z,6.53
2023-03-05T00:51:35.628Z,6.52
2023-03-05T00:54:02.348Z,6.49
2023-03-05T00:56:28.995Z,6.48
2023-03-05T00:58:55.446Z,6.45
2023-03-05T01:01:21.966Z,6.44
2023-03-05T01:03:48.585Z,6.43
2023-03-05T01:06:16.929Z,6.41
2023-03-05T01:08:44.115Z,6.41
2023-03-05T01:11:11.727Z,6.38
2023-03-05T01:13:38.310Z,6.37
2023-03-05T01:16:06.151Z,6.37
2023-03-05T01:18:33.426Z,6.36
2023-03-05T01:20:59.838Z,6.34
2023-03-05T01:23:26.604Z,6.33
2023-03-05T01:25:55.431Z,6.32
2023-03-05T01:28:22.614Z,6.29
2023-03-05T01:30:49.379Z,6.28
2023-03-05T01:33:16.131Z,6.27
2023-03-05T01:35:42.594Z,6.27
2023-03-05T01:38:09.145Z,6.25
2023-03-05T01:40:35.528Z,6.25
2023-03-05T01:43:29.855Z,6.24
2023-03-05T01:46:17.765Z,6.23
2023-03-05T01:48:52.280Z,6.24
2023-03-05T01:51:22.830Z,6.23
2023-03-05T01:53:49.514Z,6.22
2023-03-05T01:56:16.825Z,6.20
2023-03-05T01:58:44.882Z,6.20
2023-03-05T02:01:11.370Z,6.18
2023-03-05T02:03:38.528Z,6.18
2023-03-05T02:06:05.217Z,6.18
2023-03-05T02:08:31.655Z,6.19
2023-03-05T02:10:58.072Z,6.19
2023-03-05T02:13:28.432Z,6.20
2023-03-05T02:15:57.810Z,6.20
2023-03-05T02:18:24.872Z,6.20
2023-03-05T02:20:51.137Z,6.22
2023-03-05T02:23:19.283Z,6.22
2023-03-05T02:25:45.688Z,6.21
2023-03-05T02:28:17.988Z,6.21
2023-03-05T02:30:44.400Z,6.21
2023-03-05T02:33:10.949Z,6.23
2023-03-05T02:35:37.381Z,6.24
2023-03-05T02:38:03.723Z,6.24
2023-03-05T02:40:30.058Z,6.24
2023-03-05T02:42:56.438Z,6.24
2023-03-05T02:45:22.965Z,6.24
2023-03-05T02:47:49.441Z,6.24
2023-03-05T02:50:15.995Z,6.25
2023-03-05T02:52:42.367Z,6.23
2023-03-05T02:55:09.073Z,6.24
2023-03-05T02:57:35.448Z,6.21
2023-03-05T03:00:01.984Z,6.19
2023-03-05T03:02:28.454Z,6.19
2023-03-05T03:04:54.776Z,6.17
2023-03-05T03:07:21.137Z,6.15
2023-03-05T03:09:47.461Z,6.14
2023-03-05T03:12:13.957Z,6.11
2023-03-05T03:14:42.461Z,6.12
2023-03-05T03:17:11.985Z,6.10
2023-03-05T03:19:38.835Z,6.07
2023-03-05T03:22:06.378Z,6.06
2023-03-05T03:24:34.658Z,6.04
2023-03-05T03:27:01.932Z,6.01
2023-03-05T03:29:28.761Z,6.01
2023-03-05T03:31:55.191Z,5.99
2023-03-05T03:34:22.047Z,5.97
2023-03-05T03:36:50.541Z,5.96
2023-03-05T03:39:17.324Z,5.95
2023-03-05T03:41:47.818Z,5.95
2023-03-05T03:44:17.392Z,5.93
2023-03-05T03:46:46.082Z,5.93
2023-03-05T03:49:19.120Z,5.92
2023-03-05T03:51:46.433Z,5.92
2023-03-05T03:54:14.091Z,5.90
2023-03-05T03:56:40.549Z,5.89
2023-03-05T03:59:06.961Z,5.90
2023-03-05T04:01:33.525Z,5.89
2023-03-05T04:04:00.122Z,5.89
2023-03-05T04:06:26.701Z,5.89
2023-03-05T04:08:53.150Z,5.89
2023-03-05T04:11:19.666Z,5.88
2023-03-05T04:13:47.250Z,5.88
2023-03-05T04:16:15.188Z,5.87
2023-03-05T04:18:42.537Z,5.89
2023-03-05T04:21:09.806Z,5.90
2023-03-05T04:23:36.382Z,5.92
2023-03-05T04:26:03.267Z,5.93
2023-03-05T04:28:29.822Z,5.94
2023-03-05T04:30:56.320Z,5.95
2023-03-05T04:33:22.879Z,5.98
2023-03-05T04:35:49.868Z,5.99
2023-03-05T04:38:16.372Z,6.01
2023-03-05T04:40:42.805Z,6.02
2023-03-05T04:43:09.132Z,6.03
2023-03-05T04:45:35.556Z,6.03
2023-03-05T04:48:02.296Z,6.04
2023-03-05T04:50:28.855Z,6.05
2023-03-05T04:52:55.260Z,6.07
2023-03-05T04:55:21.603Z,6.06
2023-03-05T04:57:47.969Z,6.07
2023-03-05T05:00:17.530Z,6.08
2023-03-05T05:02:45.601Z,6.07
2023-03-05T05:05:14.191Z,6.07
2023-03-05T05:07:40.919Z,6.06
2023-03-05T05:10:08.420Z,6.06
2023-03-05T05:12:35.359Z,6.06
2023-03-05T05:15:03.551Z,6.05
2023-03-05T05:17:32.862Z,6.07
2023-03-05T05:20:00.204Z,6.06
2023-03-05T05:22:28.486Z,6.07
2023-03-05T05:24:55.716Z,6.07
2023-03-05T05:27:22.605Z,6.08
2023-03-05T05:29:52.880Z,6.09
2023-03-05T05:32:21.180Z,6.09
2023-03-05T05:34:48.831Z,6.10
2023-03-05T05:37:15.310Z,6.10
2023-03-05T05:39:41.709Z,6.09
2023-03-05T05:42:08.126Z,6.10
2023-03-05T05:44:35.083Z,6.09
2023-03-05T05:47:01.769Z,6.08
2023-03-05T05:49:28.309Z,6.08
2023-03-05T05:51:54.812Z,6.08
2023-03-05T05:54:21.185Z,6.07
2023-03-05T05:56:47.552Z,6.06
2023-03-05T05:59:13.976Z,6.06
2023-03-05T06:01:40.705Z,6.05
2023-03-05T06:04:07.169Z,6.04
2023-03-05T06:06:34.885Z,6.04
2023-03-05T06:09:02.385Z,6.03
2023-03-05T06:11:29.251Z,6.02
2023-03-05T06:13:55.589Z,6.01
2023-03-05T06:16:24.079Z,6.00
2023-03-05T06:18:51.578Z,6.00
2023-03-05T06:21:19.568Z,5.98
2023-03-05T06:23:47.874Z,5.99
2023-03-05T06:26:17.348Z,5.99
2023-03-05T06:28:43.901Z,5.98
2023-03-05T06:31:13.670Z,5.98
2023-03-05T06:33:40.926Z,5.99
2023-03-05T06:36:10.333Z,5.99
2023-03-05T06:38:37.041Z,5.99
2023-03-05T06:41:06.004Z,6.01
2023-03-05T06:43:33.456Z,6.02
2023-03-05T06:46:08.529Z,6.04
2023-03-05T06:48:34.928Z,6.03
2023-03-05T06:51:01.346Z,6.03
2023-03-05T06:53:28.263Z,6.05
2023-03-05T06:55:55.107Z,6.05
2023-03-05T06:58:21.690Z,6.06
2023-03-05T07:00:48.110Z,6.07
2023-03-05T07:03:14.982Z,6.06
2023-03-05T07:05:42.761Z,6.08
2023-03-05T07:08:09.595Z,6.09
2023-03-05T07:10:40.185Z,6.12
2023-03-05T07:13:07.273Z,6.14
2023-03-05T07:15:34.417Z,6.15
2023-03-05T07:18:00.757Z,6.17
2023-03-05T07:20:27.166Z,6.19
2023-03-05T07:22:53.538Z,6.19
2023-03-05T07:25:21.555Z,6.21
2023-03-05T07:27:48.532Z,6.22
2023-03-05T07:30:15.494Z,6.25
2023-03-05T07:32:42.400Z,6.26
2023-03-05T07:35:09.231Z,6.28
2023-03-05T07:37:35.712Z,6.30
2023-03-05T07:40:02.650Z,6.32
2023-03-05T07:42:29.023Z,6.34
2023-03-05T07:44:56.136Z,6.36
2023-03-05T07:47:23.405Z,6.39
2023-03-05T07:49:50.124Z,6.43
2023-03-05T07:52:16.511Z,6.46
2023-03-05T07:54:42.920Z,6.50
2023-03-05T07:57:11.062Z,6.55
2023-03-05T07:59:38.246Z,6.60
2023-03-05T08:02:05.356Z,6.66
2023-03-05T08:04:31.944Z,6.69
2023-03-05T08:06:59.588Z,6.74
2023-03-05T08:09:26.337Z,6.77
2023-03-05T08:11:52.686Z,6.81
2023-03-05T08:14:19.017Z,6.81
2023-03-05T08:16:48.365Z,6.82
2023-03-05T08:19:14.910Z,6.83
2023-03-05T08:21:41.232Z,6.84
2023-03-05T08:24:09.239Z,6.86
2023-03-05T08:26:40.967Z,6.91
2023-03-05T08:29:09.443Z,6.93
2023-03-05T08:31:36.656Z,6.97
2023-03-05T08:34:04.068Z,7.00
2023-03-05T08:36:30.551Z,7.06
2023-03-05T08:38:56.961Z,7.08
2023-03-05T08:41:23.327Z,7.10
2023-03-05T08:43:58.712Z,7.13
2023-03-05T08:46:25.171Z,7.15
2023-03-05T08:48:51.611Z,7.18
2023-03-05T08:51:21.247Z,7.23
2023-03-05T08:53:47.676Z,7.26
2023-03-05T08:56:14.691Z,7.31
2023-03-05T08:58:43.480Z,7.35
2023-03-05T09:01:10.807Z,7.38
2023-03-05T09:03:37.525Z,7.40
2023-03-05T09:06:07.639Z,7.42
2023-03-05T09:08:35.515Z,7.41
2023-03-05T09:11:04.301Z,7.41
2023-03-05T09:13:30.856Z,7.41
2023-03-05T09:15:59.622Z,7.42
2023-03-05T09:18:26.969Z,7.42
2023-03-05T09:20:54.291Z,7.44
2023-03-05T09:23:20.679Z,7.45
2023-03-05T09:25:47.117Z,7.47
2023-03-05T09:28:13.437Z,7.48
2023-03-05T09:30:39.879Z,7.50
2023-03-05T09:33:06.303Z,7.53
2023-03-05T09:35:36.093Z,7.56
2023-03-05T09:38:03.394Z,7.61
2023-03-05T09:40:52.206Z,7.64
2023-03-05T09:43:37.195Z,7.67
2023-03-05T09:46:17.148Z,7.74
2023-03-05T09:48:58.252Z,7.79
2023-03-05T09:51:28.077Z,7.84
2023-03-05T09:54:02.935Z,7.91
2023-03-05T09:56:34.699Z,7.96
2023-03-05T09:59:17.477Z,8.02
2023-03-05T10:01:45.264Z,8.07
2023-03-05T10:04:23.806Z,8.13
2023-03-05T10:07:00.000Z,8.19
2023-03-05T10:09:44.620Z,8.22
2023-03-05T10:12:27.623Z,8.22
2023-03-05T10:14:54.809Z,8.23
2023-03-05T10:17:39.584Z,8.25
2023-03-05T10:20:23.127Z,8.29
2023-03-05T10:23:05.302Z,8.34
2023-03-05T10:25:50.042Z,8.40
2023-03-05T10:28:21.416Z,8.47
2023-03-05T10:31:09.069Z,8.52
2023-03-05T10:34:01.742Z,8.62
2023-03-05T10:37:12.449Z,8.74
2023-03-05T10:39:59.962Z,8.83
2023-03-05T10:43:24.077Z,8.88
2023-03-05T10:45:55.227Z,8.91
2023-03-05T10:48:42.951Z,8.90
2023-03-05T10:51:22.921Z,8.92
2023-03-05T10:53:59.420Z,8.93
2023-03-05T10:56:28.251Z,8.93
2023-03-05T10:58:55.004Z,8.94
2023-03-05T11:01:29.612Z,8.96
2023-03-05T11:04:05.130Z,8.99
2023-03-05T11:06:45.661Z,9.01
2023-03-05T11:09:29.072Z,9.02
2023-03-05T11:12:10.532Z,9.06
2023-03-05T11:14:42.631Z,9.08
2023-03-05T11:17:24.059Z,9.12
2023-03-05T11:19:50.454Z,9.15
2023-03-05T11:22:22.369Z,9.21
2023-03-05T11:25:03.263Z,9.28
2023-03-05T11:27:52.521Z,9.36
2023-03-05T11:30:25.655Z,9.44
2023-03-05T11:33:13.372Z,9.53
2023-03-05T11:35:43.202Z,9.59
2023-03-05T11:38:23.654Z,9.67
2023-03-05T11:40:52.153Z,9.78
2023-03-05T11:43:21.097Z,9.90
2023-03-05T11:45:51.156Z,10.05
2023-03-05T11:48:46.462Z,10.19
2023-03-05T11:51:22.404Z,10.33
2023-03-05T11:53:51.425Z,10.42
2023-03-05T11:56:25.457Z,10.51
2023-03-05T11:59:04.523Z,10.53
2023-03-05T12:01:34.419Z,10.54
2023-03-05T12:04:00.948Z,10.53
2023-03-05T12:06:38.807Z,10.54
2023-03-05T12:09:33.908Z,10.57
2023-03-05T12:12:18.256Z,10.62
2023-03-05T12:14:58.280Z,10.66
2023-03-05T12:17:45.162Z,10.71
2023-03-05T12:20:23.294Z,10.76
2023-03-05T12:22:50.653Z,10.79
2023-03-05T12:25:17.013Z,10.83
2023-03-05T12:27:43.659Z,10.85
2023-03-05T12:30:49.127Z,10.85
2023-03-05T12:33:37.360Z,10.84
2023-03-05T12:36:34.101Z,10.79
2023-03-05T12:39:00.426Z,10.78
2023-03-05T12:41:31.020Z,10.73
2023-03-05T12:44:07.590Z,10.65
2023-03-05T12:46:35.976Z,10.60
2023-03-05T12:49:21.072Z,10.54
2023-03-05T12:51:52.338Z,10.49
2023-03-05T12:54:27.907Z,10.46
2023-03-05T12:56:57.596Z,10.46
2023-03-05T12:59:29.901Z,10.47
2023-03-05T13:02:00.676Z,10.50
2023-03-05T13:04:30.338Z,10.53
2023-03-05T13:07:04.123Z,10.57
2023-03-05T13:09:34.794Z,10.57
2023-03-05T13:12:03.907Z,10.60
2023-03-05T13:14:43.552Z,10.66
2023-03-05T13:17:30.681Z,10.70
2023-03-05T13:19:59.053Z,10.72
2023-03-05T13:22:25.718Z,10.72
2023-03-05T13:25:15.374Z,10.71
2023-03-05T13:27:42.220Z,10.68
2023-03-05T13:30:26.501Z,10.68
2023-03-05T13:32:57.646Z,10.68
2023-03-05T13:35:24.321Z,10.67
2023-03-05T13:37:51.040Z,10.68
2023-03-05T13:40:30.124Z,10.68
2023-03-05T13:43:09.659Z,10.68
2023-03-05T13:45:36.026Z,10.67
2023-03-05T13:48:05.644Z,10.66
2023-03-05T13:50:38.869Z,10.65
2023-03-05T13:53:23.369Z,10.61
2023-03-05T13:55:51.938Z,10.58
2023-03-05T13:58:49.124Z,10.54
2023-03-05T14:01:26.704Z,10.51
2023-03-05T14:03:55.966Z,10.46
2023-03-05T14:06:23.932Z,10.42
2023-03-05T14:09:00.453Z,10.40
2023-03-05T14:11:26.824Z,10.34
2023-03-05T14:14:08.020Z,10.28
2023-03-05T14:16:34.485Z,10.25
2023-03-05T14:19:03.132Z,10.21
2023-03-05T14:21:48.015Z,10.18
2023-03-05T14:24:22.066Z,10.16
2023-03-05T14:26:53.723Z,10.13
2023-03-05T14:29:23.599Z,10.11
2023-03-05T14:31:54.489Z,10.10
2023-03-05T14:34:23.096Z,10.10
2023-03-05T14:36:51.630Z,10.07
2023-03-05T14:39:28.432Z,10.05
2023-03-05T14:41:54.921Z,10.00
2023-03-05T14:44:25.241Z,9.99
2023-03-05T14:46:51.784Z,9.96
2023-03-05T14:49:20.206Z,9.95
2023-03-05T14:51:47.191Z,9.94
2023-03-05T14:54:22.837Z,9.95
2023-03-05T14:56:50.213Z,9.95
2023-03-05T14:59:23.218Z,9.95
2023-03-05T15:01:50.945Z,9.97
2023-03-05T15:04:19.721Z,9.97
2023-03-05T15:06:50.588Z,9.98
2023-03-05T15:09:19.521Z,10.00
2023-03-05T15:11:46.963Z,10.01
2023-03-05T15:14:13.574Z,10.03
2023-03-05T15:16:43.959Z,10.04
2023-03-05T15:19:12.002Z,10.05
2023-03-05T15:21:38.895Z,10.04
2023-03-05T15:24:05.570Z,10.02
2023-03-05T15:26:32.630Z,10.00
2023-03-05T15:28:59.044Z,9.99
2023-03-05T15:31:25.705Z,9.97
2023-03-05T15:34:01.473Z,9.94
2023-03-05T15:36:27.796Z,9.90
2023-03-05T15:38:54.160Z,9.88
2023-03-05T15:41:22.291Z,9.86
2023-03-05T15:43:48.622Z,9.85
2023-03-05T15:46:14.957Z,9.85
2023-03-05T15:48:44.136Z,9.81
2023-03-05T15:51:10.538Z,9.80
2023-03-05T15:53:36.852Z,9.80
2023-03-05T15:56:03.270Z,9.77
2023-03-05T15:58:29.682Z,9.76
2023-03-05T16:00:56.626Z,9.73
2023-03-05T16:03:26.071Z,9.72
2023-03-05T16:05:52.717Z,9.69
2023-03-05T16:08:19.068Z,9.67
2023-03-05T16:10:46.560Z,9.63
2023-03-05T16:13:18.570Z,9.62
2023-03-05T16:15:48.925Z,9.59
2023-03-05T16:18:16.333Z,9.56
2023-03-05T16:20:42.763Z,9.53
2023-03-05T16:23:09.332Z,9.48
2023-03-05T16:25:36.995Z,9.45
2023-03-05T16:28:03.374Z,9.42
2023-03-05T16:30:29.877Z,9.38
2023-03-05T16:32:56.342Z,9.35
2023-03-05T16:35:22.880Z,9.31
2023-03-05T16:37:49.366Z,9.28
2023-03-05T16:40:16.508Z,9.27
2023-03-05T16:42:43.181Z,9.22
2023-03-05T16:45:11.489Z,9.20
2023-03-05T16:47:38.662Z,9.16
2023-03-05T16:50:05.912Z,9.14
2023-03-05T16:52:32.474Z,9.12
2023-03-05T16:54:58.898Z,9.10
2023-03-05T16:57:25.673Z,9.07
2023-03-05T16:59:53.062Z,9.06
2023-03-05T17:02:19.784Z,9.02
2023-03-05T17:04:46.239Z,9.00
2023-03-05T17:07:12.821Z,8.98
2023-03-05T17:09:39.209Z,8.96
2023-03-05T17:12:05.928Z,8.94
2023-03-05T17:14:32.343Z,8.91
2023-03-05T17:16:58.846Z,8.90
2023-03-05T17:19:25.178Z,8.89
2023-03-05T17:21:52.222Z,8.87
2023-03-05T17:24:21.556Z,8.85
2023-03-05T17:26:49.795Z,8.83
2023-03-05T17:29:16.197Z,8.80
2023-03-05T17:31:42.598Z,8.77
2023-03-05T17:34:09.118Z,8.73
2023-03-05T17:36:35.661Z,8.69
2023-03-05T17:39:02.048Z,8.65
2023-03-05T17:41:28.546Z,8.61
2023-03-05T17:43:54.889Z,8.58
2023-03-05T17:46:21.301Z,8.55
2023-03-05T17:48:48.198Z,8.53
2023-03-05T17:51:16.605Z,8.50
2023-03-05T17:53:44.093Z,8.48
2023-03-05T17:56:12.249Z,8.46
2023-03-05T17:58:39.762Z,8.45
2023-03-05T18:01:07.250Z,8.43
2023-03-05T18:03:34.174Z,8.42
2023-03-05T18:06:00.503Z,8.40
2023-03-05T18:08:26.926Z,8.39
2023-03-05T18:10:54.428Z,8.38
2023-03-05T18:13:20.974Z,8.37
2023-03-05T18:15:47.521Z,8.35
2023-03-05T18:18:18.457Z,8.34
2023-03-05T18:20:45.543Z,8.31
2023-03-05T18:23:11.924Z,8.29
2023-03-05T18:25:38.498Z,8.27
2023-03-05T18:28:14.142Z,8.24
2023-03-05T18:30:42.157Z,8.22
2023-03-05T18:33:13.596Z,8.19
2023-03-05T18:35:39.967Z,8.17
2023-03-05T18:38:07.901Z,8.15
2023-03-05T18:40:35.948Z,8.12
2023-03-05T18:43:03.476Z,8.11
2023-03-05T18:45:30.880Z,8.11
2023-03-05T18:47:57.740Z,8.09
2023-03-05T18:50:27.382Z,8.08
2023-03-05T18:52:54.080Z,8.08
2023-03-05T18:55:24.132Z,8.07
2023-03-05T18:57:50.753Z,8.06
2023-03-05T19:00:20.410Z,8.04
2023-03-05T19:02:46.846Z,8.04
2023-03-05T19:05:14.358Z,8.02
2023-03-05T19:07:41.108Z,8.00
2023-03-05T19:10:09.897Z,8.00
2023-03-05T19:13:27.056Z,7.99
2023-03-05T19:15:53.675Z,7.99
2023-03-05T19:18:54.158Z,7.97
2023-03-05T19:21:20.506Z,7.95
2023-03-05T19:23:46.829Z,7.95
2023-03-05T19:26:13.660Z,7.93
2023-03-05T19:28:40.050Z,7.91
2023-03-05T19:31:06.460Z,7.92
2023-03-05T19:33:32.880Z,7.91
2023-03-05T19:35:59.276Z,7.91
2023-03-05T19:38:25.644Z,7.89
2023-03-05T19:40:52.129Z,7.89
2023-03-05T19:43:18.540Z,7.89
2023-03-05T19:45:44.965Z,7.89
2023-03-05T19:48:11.532Z,7.86
2023-03-05T19:50:37.893Z,7.86
2023-03-05T19:53:04.274Z,7.86
2023-03-05T19:55:30.604Z,7.85
2023-03-05T19:57:56.941Z,7.85
2023-03-05T20:00:26.416Z,7.83
2023-03-05T20:02:52.737Z,7.82
2023-03-05T20:05:22.592Z,7.82
2023-03-05T20:07:49.241Z,7.81
2023-03-05T20:10:15.731Z,7.80
2023-03-05T20:12:43.959Z,7.79
2023-03-05T20:15:10.447Z,7.78
2023-03-05T20:17:36.835Z,7.77
2023-03-05T20:20:03.491Z,7.76
2023-03-05T20:22:29.830Z,7.75
2023-03-05T20:24:56.226Z,7.73
2023-03-05T20:27:23.904Z,7.73
2023-03-05T20:29:50.252Z,7.72
2023-03-05T20:32:16.608Z,7.70
2023-03-05T20:34:43.347Z,7.69
2023-03-05T20:37:09.706Z,7.68
2023-03-05T20:39:36.029Z,7.68
2023-03-05T20:42:02.616Z,7.66
2023-03-05T20:44:29.021Z,7.64
2023-03-05T20:47:25.848Z,7.64
2023-03-05T20:49:55.860Z,7.63
2023-03-05T20:52:22.354Z,7.62
2023-03-05T20:54:48.719Z,7.61
2023-03-05T20:57:15.234Z,7.60
2023-03-05T20:59:41.664Z,7.59
2023-03-05T21:02:11.273Z,7.58
2023-03-05T21:04:37.627Z,7.55
2023-03-05T21:07:04.189Z,7.54
2023-03-05T21:09:31.268Z,7.52
2023-03-05T21:11:57.652Z,7.51
2023-03-05T21:14:24.027Z,7.49
2023-03-05T21:16:50.449Z,7.48
2023-03-05T21:19:17.058Z,7.44
2023-03-05T21:21:45.614Z,7.44
2023-03-05T21:24:53.427Z,7.41
2023-03-05T21:27:19.898Z,7.41
2023-03-05T21:29:46.326Z,7.40
2023-03-05T21:32:12.709Z,7.38
2023-03-05T21:34:39.078Z,7.36
2023-03-05T21:37:05.417Z,7.34
2023-03-05T21:39:31.749Z,7.33
2023-03-05T21:41:58.210Z,7.32
2023-03-05T21:44:24.558Z,7.30
2023-03-05T21:46:51.332Z,7.28
2023-03-05T21:49:17.725Z,7.27
2023-03-05T21:52:09.332Z,7.26
2023-03-05T21:54:37.637Z,7.23
2023-03-05T21:57:05.690Z,7.21
2023-03-05T21:59:32.056Z,7.20
2023-03-05T22:01:58.479Z,7.19
2023-03-05T22:04:25.275Z,7.17
2023-03-05T22:06:51.789Z,7.16
2023-03-05T22:09:18.580Z,7.14
2023-03-05T22:11:45.001Z,7.13
2023-03-05T22:14:11.742Z,7.11
2023-03-05T22:16:38.361Z,7.10
2023-03-05T22:19:05.333Z,7.08
2023-03-05T22:21:32.117Z,7.08
2023-03-05T22:23:58.908Z,7.07
2023-03-05T22:26:27.092Z,7.07
2023-03-05T22:28:53.481Z,7.06
2023-03-05T22:31:25.253Z,7.06
2023-03-05T22:33:52.508Z,7.03
2023-03-05T22:36:18.989Z,7.02
2023-03-05T22:38:46.119Z,7.01
2023-03-05T22:41:16.646Z,7.02
2023-03-05T22:43:42.985Z,6.99
2023-03-05T22:46:11.662Z,6.99
2023-03-05T22:48:38.149Z,6.97
2023-03-05T22:51:04.634Z,6.96
2023-03-05T22:53:31.452Z,6.95
2023-03-05T22:55:57.811Z,6.94
2023-03-05T22:58:24.194Z,6.92
2023-03-05T23:00:50.537Z,6.91
2023-03-05T23:03:16.921Z,6.87
2023-03-05T23:05:43.328Z,6.85
2023-03-05T23:08:09.900Z,6.82
2023-03-05T23:10:36.517Z,6.80
2023-03-05T23:13:02.946Z,6.77
2023-03-05T23:15:35.369Z,6.75
2023-03-05T23:18:02.367Z,6.71
2023-03-05T23:20:31.764Z,6.70
2023-03-05T23:22:58.427Z,6.66
2023-03-05T23:25:29.113Z,6.65
2023-03-05T23:27:58.077Z,6.62
2023-03-05T23:30:30.098Z,6.59
2023-03-05T23:33:20.377Z,6.56
2023-03-05T23:35:55.068Z,6.54
2023-03-05T23:38:21.764Z,6.52
2023-03-05T23:40:50.977Z,6.50
2023-03-05T23:43:18.457Z,6.47
2023-03-05T23:45:48.030Z,6.45
2023-03-05T23:48:16.209Z,6.44
2023-03-05T23:50:45.292Z,6.41
2023-03-05T23:53:19.539Z,6.39
2023-03-05T23:55:46.425Z,6.36
2023-03-05T23:58:13.497Z,6.33
